Leyburn, United Kingdom
Current Conditions -  °F | °C
As of 4:50 AM on Saturday 20 Dec 2014 (Local Time) from EGXE Reporting Station
Scattered Clouds Scattered Clouds  
Wind Chill: 36°   Ceiling: Unl
Heat Index: 45°   Visibility: 6mi
Dew Point: 37°   Wind: 22mph
Humidity: 76%   Direction: 270°W
Pressure: 29.94"   Gusts: NA
Location:  54.31°N, 1.83°W
Report Text: EGXE 200450Z AUTO 27019KT 9999 SCT220/// 07/03 Q1014
Loading
Personal Weather Stations






























Interactive Weather Map New forecast layout! Learn more

10-Day Weather Forecast

Advertisements
Track Severe Weather on mobile